Nearby METAR Reports

 

KSJC - San Jose, California, USA
Distance from station: NE 14km
Updated: 19/12/2018 07:53
Mist, Overcast
Mist, Overcast
 Wind from calm
Wind: Calm
Temperature: 10°C
Dew Point: 9°C
Humidity: 94%
Barometer: 1026.1 hPa
Summary: Mist
Clouds: Overcast
Visibility: 8 km
Cloud details: Few Clouds 30 m
Mostly cloudy 122 m
Overcast 274 m
2018/12/19 15:53 KSJC 191553Z 00000KT 5SM BR FEW001 BKN004 OVC009 10/09 A3030 RMK AO2 SLP260 T01000089
KNUQ - Moffett Nas/Mtn, California, USA
Distance from station: N 14km
Updated: 19/12/2018 07:56
Overcast
Overcast
 Wind from calm
Wind: Calm
Temperature: 11°C
Dew Point: 9°C
Humidity: 88%
Barometer: 1026.4 hPa
Clouds: Overcast
Visibility: 16 km
Cloud details: Overcast 213 m
2018/12/19 15:56 KNUQ 191556Z 00000KT 10SM OVC007 11/09 A3031 RMK AO2 SLP267 T01060094 $
 
KPAO - Palo Alto, California, USA
Distance from station: NNW 23km
Updated: 19/12/2018 07:47
Overcast
Overcast
 Wind from calm
Wind: Calm
Temperature: 11°C
Dew Point: 10°C
Humidity: 94%
Barometer: 1026.4 hPa
Clouds: Overcast
Visibility: 16 km
Cloud details: Overcast 244 m
2018/12/19 15:47 KPAO 191547Z 00000KT 10SM OVC008 11/10 A3031
KRHV - San Jose/Reid, California, USA
Distance from station: ENE 19km
Updated: 19/12/2018 07:47
Overcast
Overcast
 Wind from varies
Wind: varies 7 km/h
Temperature: 10°C
Wind Chill: 9°C
Dew Point: 9°C
Humidity: 94%
Barometer: 1025.4 hPa
Clouds: Overcast
Visibility: 16 km
Cloud details: Mostly cloudy 366 m
Overcast 610 m
2018/12/19 15:47 KRHV 191547Z VRB04KT 10SM BKN012 OVC020 10/09 A3028
 
KOAK - Oakland, California, USA
Distance from station: NNW 50km
Updated: 19/12/2018 07:53
Mist, Overcast
Mist, Overcast
 Wind from W
Wind: W 7 km/h
Temperature: 13°C
Dew Point: 11°C
Humidity: 88%
Barometer: 1026.1 hPa
Summary: Mist
Clouds: Overcast
Visibility: 10 km
Cloud details: Overcast 396 m
2018/12/19 15:53 KOAK 191553Z 28004KT 6SM BR OVC013 13/11 A3030 RMK AO2 SLP261 T01280106
KSQL - San Carlos Airpo, California, USA
Distance from station: NW 34km
Updated: 19/12/2018 07:50
Overcast
Overcast
 Wind from calm
Wind: Calm
Temperature: 12°C
Dew Point: 11°C
Humidity: 94%
Barometer: 1026.1 hPa
Clouds: Overcast
Visibility: 14 km
Cloud details: Overcast 244 m
2018/12/19 15:50 KSQL 191550Z 00000KT 9SM OVC008 12/11 A3030
 
KSFO - San Francisco, California, USA
Distance from station: NW 49km
Updated: 19/12/2018 07:56
Overcast
Overcast
 Wind from calm
Wind: Calm
Temperature: 13°C
Dew Point: 11°C
Humidity: 88%
Barometer: 1025.7 hPa
Clouds: Overcast
Visibility: 16 km
Cloud details: Overcast 305 m
2018/12/19 15:56 KSFO 191556Z 00000KT 10SM OVC010 13/11 A3029 RMK AO2 SLP258 T01330111
KE16 - San Martin, California, USA
Distance from station: ESE 43km
Updated: 19/12/2018 07:50
Overcast
Overcast
 Wind from calm
Wind: Calm
Temperature: 7°C
Dew Point: 7°C
Humidity: 100%
Barometer: 1026.4 hPa
Clouds: Overcast
Visibility: 16 km
Cloud details: Overcast 335 m
2018/12/19 15:50 KE16 191550Z AUTO 00000KT 10SM OVC011 07/07 A3031 RMK AO2 PWINO PNO
 
KWVI - Watsonville, California, USA
Distance from station: SSE 44km
Updated: 19/12/2018 07:53
Clear
Clear
 Wind from calm
Wind: Calm
Temperature: 7°C
Dew Point: 7°C
Humidity: 100%
Barometer: 1025.4 hPa
Clouds: Clear
Visibility: 16 km
2018/12/19 15:53 KWVI 191553Z AUTO 00000KT 10SM CLR 07/07 A3028 RMK AO2 SLP254 T00720072
KHAF - Half Moon Bay, California, USA
Distance from station: WNW 50km
Updated: 19/12/2018 07:55
Mist, Clear
Mist, Clear
 Wind from E
Wind: E 6 km/h
Temperature: 11°C
Dew Point: 10°C
Humidity: 94%
Barometer: 1025.7 hPa
Summary: Mist
Clouds: Clear
Visibility: 6 km
2018/12/19 15:55 KHAF 191555Z AUTO 08003KT 4SM BR CLR 11/10 A3029 RMK AO2
 
KHWD - Hayward, California, USA
Distance from station: N 44km
Updated: 19/12/2018 07:54
Overcast
Overcast
 Wind from calm
Wind: Calm
Temperature: 13°C
Dew Point: 11°C
Humidity: 88%
Barometer: 1026.1 hPa
Clouds: Overcast
Visibility: 16 km
Cloud details: Overcast 396 m
2018/12/19 15:54 KHWD 191554Z 00000KT 10SM OVC013 13/11 A3030 RMK AO2 SLP269 T01330111
KLVK - Livermore, California, USA
Distance from station: NNE 51km
Updated: 19/12/2018 07:53
Mist, Overcast
Mist, Overcast
 Wind from calm
Wind: Calm
Temperature: 9°C
Dew Point: 9°C
Humidity: 100%
Barometer: 1026.1 hPa
Summary: Mist
Clouds: Overcast
Visibility: 10 km
Cloud details: Overcast 122 m
2018/12/19 15:53 KLVK 191553Z 00000KT 6SM BR OVC004 09/09 A3030 RMK AO2 SLP261 T00890089